Time;durP1;ratioP1;P1;durP2;ratioP2;P2;SDS_P1;SDS_P2;PMS_P1;PMS_P2;Temp;Humidity;BMP_temperature;BMP_pressure;BME280_temperature;BME280_humidity;BME280_pressure;Samples;Min_cycle;Max_cycle;Signal;HPM_P1;HPM_P2
2023/10/25 00:01:30;;;;;;;0.60;0.60;;;10.40;99.90;;;;;;5033210;28;20543;-60
2023/10/25 00:03:55;;;;;;;0.70;0.70;;;10.40;99.90;;;;;;5033257;28;20258;-60
2023/10/25 00:06:21;;;;;;;0.70;0.50;;;10.50;99.90;;;;;;5033209;28;20584;-60
2023/10/25 00:08:47;;;;;;;1.13;0.83;;;10.50;99.90;;;;;;5033218;28;20194;-60
2023/10/25 00:11:12;;;;;;;1.00;1.00;;;10.50;99.90;;;;;;5033272;28;20198;-60
2023/10/25 00:13:38;;;;;;;0.70;0.70;;;10.50;99.90;;;;;;5033058;28;20206;-60
2023/10/25 00:16:04;;;;;;;0.90;0.90;;;10.50;99.90;;;;;;5033273;28;20529;-60
2023/10/25 00:18:30;;;;;;;0.40;0.40;;;10.50;99.90;;;;;;5032790;28;20187;-60
2023/10/25 00:20:56;;;;;;;0.70;0.50;;;10.50;99.90;;;;;;5033221;28;20885;-60
2023/10/25 00:23:22;;;;;;;0.40;0.40;;;10.50;99.90;;;;;;5032895;28;20418;-60
2023/10/25 00:25:49;;;;;;;0.70;0.50;;;10.50;99.90;;;;;;5032707;28;20171;-60
2023/10/25 00:28:14;;;;;;;1.17;0.70;;;10.40;99.90;;;;;;5032188;28;20182;-60
2023/10/25 00:30:40;;;;;;;0.70;0.70;;;10.40;99.90;;;;;;5032712;28;20994;-60
2023/10/25 00:33:06;;;;;;;0.83;0.70;;;10.50;99.90;;;;;;5032577;28;20500;-60
2023/10/25 00:35:31;;;;;;;0.70;0.70;;;10.50;99.90;;;;;;5032551;28;20179;-60
2023/10/25 00:37:57;;;;;;;1.43;1.33;;;10.60;99.90;;;;;;5032264;28;20173;-60
2023/10/25 00:40:26;;;;;;;0.63;0.57;;;10.60;99.90;;;;;;5032398;28;20210;-60
2023/10/25 00:42:52;;;;;;;0.67;0.60;;;10.70;99.90;;;;;;5032319;28;20421;-60
2023/10/25 00:45:18;;;;;;;1.03;0.60;;;10.70;99.90;;;;;;5032338;28;20405;-60
2023/10/25 00:47:43;;;;;;;0.77;0.77;;;10.80;99.90;;;;;;5032036;28;20167;-60
2023/10/25 00:50:17;;;;;;;2.40;1.53;;;10.80;99.90;;;;;;5032057;28;20215;-60
2023/10/25 00:52:44;;;;;;;0.52;0.52;;;10.90;99.90;;;;;;5032297;28;20608;-60
2023/10/25 00:55:09;;;;;;;0.40;0.40;;;10.90;99.90;;;;;;5032109;28;20194;-59
2023/10/25 00:57:36;;;;;;;1.00;0.70;;;10.90;99.90;;;;;;5031611;28;20267;-60
2023/10/25 01:00:02;;;;;;;1.17;0.80;;;10.90;99.90;;;;;;5032081;28;20425;-60
2023/10/25 01:02:28;;;;;;;0.40;0.40;;;10.90;99.90;;;;;;5014091;28;20600;-60
2023/10/25 01:04:54;;;;;;;0.40;0.40;;;10.90;99.90;;;;;;5032352;28;20492;-60
2023/10/25 01:07:20;;;;;;;0.60;0.60;;;10.90;99.90;;;;;;5032848;28;20648;-60
2023/10/25 01:09:46;;;;;;;0.60;0.53;;;10.80;99.90;;;;;;5031685;28;20197;-59
2023/10/25 01:12:12;;;;;;;0.73;0.73;;;10.80;99.90;;;;;;5031918;28;20175;-60
2023/10/25 01:14:38;;;;;;;0.40;0.40;;;10.80;99.90;;;;;;5031906;28;20178;-60
2023/10/25 01:17:03;;;;;;;2.43;1.60;;;10.80;99.90;;;;;;5031546;28;20167;-59
2023/10/25 01:19:29;;;;;;;1.10;0.40;;;10.70;99.90;;;;;;5031571;28;20238;-60
2023/10/25 01:21:55;;;;;;;0.87;0.87;;;10.70;99.90;;;;;;5031735;28;20254;-60
2023/10/25 01:24:21;;;;;;;1.90;0.70;;;10.60;99.90;;;;;;5031656;28;20182;-60
2023/10/25 01:26:47;;;;;;;0.65;0.65;;;10.60;99.90;;;;;;5031496;28;20205;-60
2023/10/25 01:29:15;;;;;;;0.63;0.50;;;10.60;99.90;;;;;;5031369;28;20704;-60
2023/10/25 01:31:41;;;;;;;0.50;0.50;;;10.50;99.90;;;;;;5031581;28;20206;-60
2023/10/25 01:34:06;;;;;;;0.90;0.90;;;10.30;99.90;;;;;;5031603;28;20552;-60
2023/10/25 01:36:32;;;;;;;0.63;0.63;;;10.20;99.90;;;;;;5031383;28;20211;-60
2023/10/25 01:38:58;;;;;;;0.50;0.50;;;10.10;99.90;;;;;;5031219;28;20256;-59
2023/10/25 01:41:23;;;;;;;0.53;0.53;;;10.10;99.90;;;;;;5031715;28;20236;-60
2023/10/25 01:43:49;;;;;;;0.77;0.77;;;9.90;99.90;;;;;;5031458;28;20175;-60
2023/10/25 01:46:15;;;;;;;0.50;0.50;;;9.90;99.90;;;;;;5031629;28;20659;-60
2023/10/25 01:48:42;;;;;;;0.57;0.57;;;9.80;99.90;;;;;;5031044;28;20214;-60
2023/10/25 01:51:09;;;;;;;0.65;0.65;;;9.70;99.90;;;;;;5031381;28;20198;-60
2023/10/25 01:53:35;;;;;;;1.45;1.35;;;9.70;99.90;;;;;;5031573;28;20717;-60
2023/10/25 01:56:01;;;;;;;0.60;0.60;;;9.70;99.90;;;;;;5031350;28;20301;-60
2023/10/25 01:58:27;;;;;;;0.97;0.97;;;9.70;99.90;;;;;;5030921;28;20444;-60
2023/10/25 02:00:52;;;;;;;1.20;1.10;;;9.60;99.90;;;;;;5031308;28;20182;-60
2023/10/25 02:03:18;;;;;;;1.10;1.10;;;9.70;99.90;;;;;;5031244;28;20179;-59
2023/10/25 02:05:44;;;;;;;1.17;1.17;;;9.70;99.90;;;;;;5031164;28;20258;-60
2023/10/25 02:08:09;;;;;;;1.57;1.47;;;9.70;99.90;;;;;;5030825;28;20669;-60
2023/10/25 02:10:35;;;;;;;1.17;1.03;;;9.80;99.90;;;;;;5031172;28;20207;-60
2023/10/25 02:13:01;;;;;;;0.47;0.47;;;9.80;99.90;;;;;;5031317;28;20170;-60
2023/10/25 02:15:27;;;;;;;0.77;0.77;;;9.80;99.90;;;;;;5034113;28;20206;-60
2023/10/25 02:17:53;;;;;;;0.73;0.73;;;9.80;99.90;;;;;;5033329;28;20170;-60
2023/10/25 02:20:19;;;;;;;1.07;0.83;;;9.80;99.90;;;;;;5035168;28;20693;-60
2023/10/25 02:22:45;;;;;;;1.33;1.27;;;9.80;99.90;;;;;;5035061;28;20722;-60
2023/10/25 02:25:10;;;;;;;0.73;0.73;;;9.90;99.90;;;;;;5034917;28;20438;-60
2023/10/25 02:27:36;;;;;;;1.23;0.87;;;9.90;99.90;;;;;;5034700;28;20269;-59
2023/10/25 02:30:02;;;;;;;1.10;1.00;;;10.00;99.90;;;;;;5034786;28;20271;-60
2023/10/25 02:32:28;;;;;;;1.75;1.65;;;10.10;99.90;;;;;;5034964;28;20170;-60
2023/10/25 02:34:53;;;;;;;3.00;1.70;;;10.20;99.90;;;;;;5034798;28;20182;-60
2023/10/25 02:37:19;;;;;;;1.83;1.73;;;10.20;99.90;;;;;;5034569;28;20649;-60
2023/10/25 02:39:45;;;;;;;0.50;0.50;;;10.30;99.90;;;;;;5034613;28;20186;-60
2023/10/25 02:42:12;;;;;;;1.33;1.00;;;10.30;99.90;;;;;;5034567;28;20264;-59
2023/10/25 02:44:38;;;;;;;0.40;0.40;;;10.30;99.90;;;;;;5034633;28;20163;-60
2023/10/25 02:47:05;;;;;;;0.60;0.60;;;10.40;99.90;;;;;;5034479;28;20233;-60
2023/10/25 02:49:33;;;;;;;1.10;1.10;;;10.40;99.90;;;;;;5034226;28;20468;-60
2023/10/25 02:51:58;;;;;;;0.40;0.40;;;10.40;99.90;;;;;;5034416;28;20203;-60
2023/10/25 02:54:24;;;;;;;1.80;0.83;;;10.40;99.90;;;;;;5034812;28;20167;-60
2023/10/25 02:56:50;;;;;;;1.17;1.17;;;10.40;99.90;;;;;;5034229;28;20195;-60
2023/10/25 02:59:15;;;;;;;0.77;0.77;;;10.30;99.90;;;;;;5034126;28;20569;-60
2023/10/25 03:01:41;;;;;;;0.60;0.60;;;10.30;99.90;;;;;;5034249;28;20181;-60
2023/10/25 03:04:07;;;;;;;0.60;0.60;;;10.40;99.90;;;;;;5034273;28;20657;-59
2023/10/25 03:06:32;;;;;;;0.60;0.60;;;10.30;99.90;;;;;;5034095;28;20209;-60
2023/10/25 03:08:58;;;;;;;0.50;0.50;;;10.30;99.90;;;;;;5033839;28;20198;-60
2023/10/25 03:11:24;;;;;;;0.77;0.77;;;10.20;99.90;;;;;;5034189;28;20289;-60
2023/10/25 03:13:49;;;;;;;0.50;0.50;;;10.20;99.90;;;;;;5034043;28;20258;-60
2023/10/25 03:16:15;;;;;;;1.20;0.57;;;10.10;99.90;;;;;;5034013;28;20175;-60
2023/10/25 03:18:41;;;;;;;1.30;0.67;;;10.10;99.90;;;;;;5033575;28;20195;-60
2023/10/25 03:21:06;;;;;;;0.93;0.70;;;10.10;99.90;;;;;;5033946;28;20229;-60
2023/10/25 03:23:32;;;;;;;0.60;0.60;;;10.10;99.90;;;;;;5033842;28;20175;-60
2023/10/25 03:26:05;;;;;;;1.20;1.20;;;10.10;99.90;;;;;;5033362;28;20177;-60
2023/10/25 03:28:31;;;;;;;0.88;0.80;;;10.10;99.90;;;;;;5033656;28;20426;-60
2023/10/25 03:30:57;;;;;;;0.73;0.73;;;10.20;99.90;;;;;;5033676;28;20202;-60
2023/10/25 03:33:22;;;;;;;0.73;0.73;;;10.20;99.90;;;;;;5033695;28;20189;-60
2023/10/25 03:35:53;;;;;;;0.90;0.50;;;10.20;99.90;;;;;;5033615;28;20406;-60
2023/10/25 03:38:18;;;;;;;0.85;0.85;;;10.30;99.90;;;;;;5033748;28;20583;-60
2023/10/25 03:40:44;;;;;;;0.40;0.40;;;10.30;99.90;;;;;;5033544;28;20232;-60
2023/10/25 03:43:10;;;;;;;0.50;0.50;;;10.20;99.90;;;;;;5015849;28;20166;-60
2023/10/25 03:45:35;;;;;;;0.87;0.80;;;10.20;99.90;;;;;;5015745;28;20182;-60
2023/10/25 03:48:01;;;;;;;1.47;0.60;;;10.20;99.90;;;;;;5033146;28;20183;-60
2023/10/25 03:50:27;;;;;;;1.00;1.00;;;10.20;99.90;;;;;;5034412;28;20198;-60
2023/10/25 03:52:52;;;;;;;0.40;0.40;;;10.30;99.90;;;;;;5033333;28;20178;-60
2023/10/25 03:55:18;;;;;;;0.83;0.57;;;10.30;99.90;;;;;;5033271;28;20170;-62
2023/10/25 03:57:43;;;;;;;0.70;0.70;;;10.40;99.90;;;;;;5032980;28;20547;-62
2023/10/25 04:00:10;;;;;;;0.50;0.50;;;10.30;99.90;;;;;;5033209;28;20202;-62
2023/10/25 04:02:35;;;;;;;0.77;0.50;;;10.40;99.90;;;;;;5033159;28;20186;-62
2023/10/25 04:05:01;;;;;;;0.90;0.90;;;10.30;99.90;;;;;;5033126;28;20183;-62
2023/10/25 04:07:26;;;;;;;1.23;0.60;;;10.20;99.90;;;;;;5032707;28;20541;-62
2023/10/25 04:09:52;;;;;;;1.53;0.90;;;10.20;99.90;;;;;;5032874;28;20222;-62
2023/10/25 04:12:18;;;;;;;0.70;0.70;;;10.20;99.90;;;;;;5033053;28;20341;-63
2023/10/25 04:14:44;;;;;;;0.70;0.70;;;10.10;99.90;;;;;;5015152;28;20181;-62
2023/10/25 04:17:10;;;;;;;0.50;0.50;;;10.00;99.90;;;;;;5032822;28;20177;-61
2023/10/25 04:19:37;;;;;;;0.53;0.53;;;10.00;99.90;;;;;;5032658;28;20191;-61
2023/10/25 04:22:03;;;;;;;0.40;0.40;;;9.90;99.90;;;;;;5032697;28;20453;-63
2023/10/25 04:24:29;;;;;;;0.40;0.40;;;9.90;99.90;;;;;;5032870;28;20175;-62
2023/10/25 04:26:54;;;;;;;1.60;1.27;;;9.90;99.90;;;;;;5032667;28;20178;-62
2023/10/25 04:29:20;;;;;;;3.90;0.80;;;9.90;99.90;;;;;;5032371;28;20233;-63
2023/10/25 04:31:48;;;;;;;0.67;0.67;;;9.90;99.90;;;;;;5032593;28;20210;-62
2023/10/25 04:34:14;;;;;;;0.80;0.80;;;10.00;99.90;;;;;;5032595;28;20242;-62
2023/10/25 04:36:39;;;;;;;0.70;0.70;;;10.10;99.90;;;;;;5031293;28;20250;-61
2023/10/25 04:39:08;;;;;;;0.50;0.50;;;10.10;99.90;;;;;;5031787;28;20244;-62
2023/10/25 04:41:35;;;;;;;0.70;0.60;;;10.10;99.90;;;;;;5014705;28;20190;-61
2023/10/25 04:44:01;;;;;;;0.40;0.40;;;10.20;99.90;;;;;;5032474;28;20186;-62
2023/10/25 04:46:26;;;;;;;0.50;0.50;;;10.20;99.90;;;;;;5032266;28;20171;-63
2023/10/25 04:48:52;;;;;;;0.50;0.50;;;10.10;99.90;;;;;;5031938;28;20221;-62
2023/10/25 04:51:17;;;;;;;1.17;1.07;;;10.20;99.90;;;;;;5032231;28;20540;-62
2023/10/25 04:53:44;;;;;;;0.67;0.60;;;10.20;99.90;;;;;;5032016;28;20179;-62
2023/10/25 04:56:10;;;;;;;0.60;0.57;;;10.20;99.90;;;;;;5032164;28;20846;-62
2023/10/25 04:58:36;;;;;;;0.50;0.50;;;10.20;99.90;;;;;;5031813;28;20190;-62
2023/10/25 05:01:11;;;;;;;1.13;1.00;;;10.10;99.90;;;;;;5032160;28;20577;-62
2023/10/25 05:03:37;;;;;;;0.88;0.88;;;10.20;99.90;;;;;;5031623;28;20166;-62
2023/10/25 05:06:07;;;;;;;0.57;0.50;;;10.20;99.90;;;;;;5031916;28;20171;-62
2023/10/25 05:08:34;;;;;;;0.65;0.65;;;10.10;99.90;;;;;;5031648;28;20186;-61
2023/10/25 05:11:05;;;;;;;0.90;0.40;;;10.10;99.90;;;;;;5032626;28;20206;-62
2023/10/25 05:13:32;;;;;;;0.73;0.73;;;10.10;99.90;;;;;;5032061;28;20167;-63
2023/10/25 05:15:58;;;;;;;0.90;0.90;;;10.10;99.90;;;;;;5031713;28;20252;-63
2023/10/25 05:18:25;;;;;;;2.40;1.02;;;10.20;99.90;;;;;;5031267;28;20198;-61
2023/10/25 05:20:58;;;;;;;0.50;0.50;;;10.20;99.90;;;;;;5031869;28;20338;-62
2023/10/25 05:23:31;;;;;;;2.00;1.90;;;10.20;99.90;;;;;;5031693;28;20171;-63
2023/10/25 05:25:59;;;;;;;1.25;1.17;;;10.20;99.90;;;;;;5031716;28;20240;-62
2023/10/25 05:28:25;;;;;;;0.75;0.70;;;10.20;99.90;;;;;;5031349;28;20703;-62
2023/10/25 05:30:55;;;;;;;1.05;1.02;;;10.30;99.90;;;;;;5031084;28;20206;-63
2023/10/25 05:33:23;;;;;;;1.33;0.77;;;10.30;99.90;;;;;;5031737;28;20296;-61
2023/10/25 05:35:49;;;;;;;0.82;0.82;;;10.30;99.90;;;;;;5031583;28;20690;-62
2023/10/25 05:38:15;;;;;;;1.43;0.60;;;10.30;99.90;;;;;;5030982;28;20174;-62
2023/10/25 05:40:47;;;;;;;1.30;1.30;;;10.30;99.90;;;;;;5031564;28;20420;-62
2023/10/25 05:43:15;;;;;;;1.58;0.90;;;10.30;99.90;;;;;;5031319;28;20994;-61
2023/10/25 05:45:42;;;;;;;1.40;1.27;;;10.30;99.90;;;;;;5031464;28;20659;-62
2023/10/25 05:48:13;;;;;;;1.43;1.33;;;10.40;99.90;;;;;;5030702;28;20776;-62
2023/10/25 05:50:43;;;;;;;1.07;0.97;;;10.50;99.90;;;;;;5031274;28;20468;-62
2023/10/25 05:53:09;;;;;;;0.83;0.67;;;10.50;99.90;;;;;;5031324;28;20415;-63
2023/10/25 05:55:37;;;;;;;0.93;0.93;;;10.40;99.90;;;;;;5031243;28;20775;-63
2023/10/25 05:58:03;;;;;;;0.77;0.77;;;10.40;99.90;;;;;;5030957;28;20179;-62
2023/10/25 06:00:29;;;;;;;1.10;1.00;;;10.40;99.90;;;;;;5031253;28;20261;-62
2023/10/25 06:02:56;;;;;;;1.80;1.23;;;10.50;99.90;;;;;;5031219;28;20457;-62
2023/10/25 06:05:23;;;;;;;0.50;0.50;;;10.50;99.90;;;;;;5031210;28;21008;-62
2023/10/25 06:07:49;;;;;;;0.80;0.80;;;10.60;99.90;;;;;;5030884;28;20657;-62
2023/10/25 06:10:15;;;;;;;0.90;0.90;;;10.60;99.90;;;;;;5031011;28;20209;-62
2023/10/25 06:12:42;;;;;;;0.73;0.73;;;10.50;99.90;;;;;;5031377;28;20418;-61
2023/10/25 06:15:09;;;;;;;0.80;0.80;;;10.50;99.90;;;;;;5031170;28;20445;-62
2023/10/25 06:17:35;;;;;;;1.35;1.30;;;10.60;99.90;;;;;;5031025;28;20186;-62
2023/10/25 06:20:04;;;;;;;1.02;1.00;;;10.60;99.90;;;;;;5031045;28;20236;-62
2023/10/25 06:22:29;;;;;;;1.15;1.05;;;10.60;99.90;;;;;;5030979;28;20660;-62
2023/10/25 06:24:55;;;;;;;1.43;1.33;;;10.70;99.90;;;;;;5030971;28;20175;-61
2023/10/25 06:27:21;;;;;;;1.00;0.90;;;10.70;99.90;;;;;;5030830;28;20167;-61
2023/10/25 06:29:46;;;;;;;1.30;1.20;;;10.80;99.90;;;;;;5030994;28;20799;-61
2023/10/25 06:32:12;;;;;;;0.97;0.97;;;10.80;99.90;;;;;;5031408;28;20182;-59
2023/10/25 06:34:38;;;;;;;1.00;0.80;;;10.80;99.90;;;;;;5031119;28;20167;-62
2023/10/25 06:37:05;;;;;;;1.53;1.43;;;10.80;99.90;;;;;;5030886;28;20171;-62
2023/10/25 06:39:31;;;;;;;2.30;1.85;;;10.70;99.90;;;;;;5030514;28;20195;-61
2023/10/25 06:41:57;;;;;;;0.60;0.60;;;10.80;99.90;;;;;;5030848;28;20175;-61
2023/10/25 06:44:25;;;;;;;0.80;0.80;;;10.90;99.90;;;;;;5031056;28;20417;-62
2023/10/25 06:46:51;;;;;;;0.80;0.60;;;10.90;99.90;;;;;;5030611;28;20406;-62
2023/10/25 06:49:17;;;;;;;0.80;0.80;;;10.90;99.90;;;;;;5030810;28;20452;-62
2023/10/25 06:51:43;;;;;;;0.60;0.60;;;11.00;99.90;;;;;;5030713;28;20488;-62
2023/10/25 06:54:10;;;;;;;0.70;0.70;;;11.10;99.90;;;;;;5030660;28;20677;-62
2023/10/25 06:56:36;;;;;;;0.97;0.97;;;11.10;99.90;;;;;;5030538;28;20833;-61
2023/10/25 06:59:02;;;;;;;0.80;0.80;;;11.20;99.90;;;;;;5029827;28;20460;-62
2023/10/25 07:01:31;;;;;;;1.47;1.33;;;11.40;99.90;;;;;;5033285;28;20829;-62
2023/10/25 07:03:59;;;;;;;1.30;1.30;;;11.50;99.90;;;;;;5034009;28;20405;-63
2023/10/25 07:06:25;;;;;;;0.80;0.80;;;11.60;99.90;;;;;;5033936;28;20789;-62
2023/10/25 07:08:51;;;;;;;0.50;0.50;;;11.70;99.90;;;;;;5033990;28;20441;-61
2023/10/25 07:11:17;;;;;;;2.43;2.00;;;11.80;99.90;;;;;;5033096;28;20453;-61
2023/10/25 07:13:43;;;;;;;0.73;0.73;;;11.90;99.90;;;;;;5033891;28;20459;-61
2023/10/25 07:16:08;;;;;;;1.10;1.00;;;12.00;99.90;;;;;;5034134;28;20309;-62
2023/10/25 07:18:34;;;;;;;1.43;1.33;;;12.00;99.90;;;;;;5033822;28;20191;-61
2023/10/25 07:21:00;;;;;;;1.43;1.33;;;12.10;99.90;;;;;;5033982;28;20193;-61
2023/10/25 07:23:26;;;;;;;2.10;1.37;;;12.10;99.90;;;;;;5033984;28;20414;-62
2023/10/25 07:25:52;;;;;;;1.43;1.23;;;12.00;99.90;;;;;;5034070;28;20424;-61
2023/10/25 07:28:18;;;;;;;4.53;2.10;;;12.00;99.90;;;;;;5033728;28;20233;-62
2023/10/25 07:30:44;;;;;;;1.67;1.43;;;12.10;99.90;;;;;;5033873;28;20978;-60
2023/10/25 07:33:10;;;;;;;1.83;1.73;;;12.10;99.90;;;;;;5033822;28;20648;-61
2023/10/25 07:35:35;;;;;;;1.00;0.90;;;12.20;99.90;;;;;;5034038;28;20170;-61
2023/10/25 07:38:01;;;;;;;1.80;1.53;;;12.30;99.90;;;;;;5033427;28;20449;-61
2023/10/25 07:40:27;;;;;;;1.57;1.53;;;12.40;99.90;;;;;;5033703;28;20547;-61
2023/10/25 07:42:52;;;;;;;2.10;1.43;;;12.60;99.90;;;;;;5033712;28;20185;-61
2023/10/25 07:45:18;;;;;;;1.67;1.57;;;12.80;99.90;;;;;;5033604;28;20554;-61
2023/10/25 07:47:43;;;;;;;1.57;1.37;;;12.90;99.90;;;;;;5033277;28;20182;-61
2023/10/25 07:50:09;;;;;;;1.70;1.60;;;12.90;99.90;;;;;;5033156;28;20241;-61
2023/10/25 07:52:35;;;;;;;1.17;1.10;;;12.80;99.90;;;;;;5033549;28;20603;-62
2023/10/25 07:55:05;;;;;;;2.27;2.07;;;12.70;99.90;;;;;;5033520;28;20171;-62
2023/10/25 07:57:33;;;;;;;1.73;1.67;;;12.50;99.90;;;;;;5033138;28;20947;-61
2023/10/25 07:59:59;;;;;;;2.50;2.30;;;12.50;99.90;;;;;;5033261;28;20437;-61
2023/10/25 08:02:25;;;;;;;1.93;1.00;;;12.40;99.90;;;;;;5033233;28;20470;-61
2023/10/25 08:04:51;;;;;;;1.70;1.60;;;12.30;99.90;;;;;;5033081;28;20674;-62
2023/10/25 08:07:16;;;;;;;2.53;1.63;;;12.30;99.90;;;;;;5032885;28;20405;-62
2023/10/25 08:09:42;;;;;;;1.40;1.30;;;12.40;99.90;;;;;;5033061;28;20237;-62
2023/10/25 08:12:09;;;;;;;1.57;1.47;;;12.40;99.90;;;;;;5033008;28;20216;-61
2023/10/25 08:14:35;;;;;;;1.30;1.23;;;12.20;99.90;;;;;;5033240;28;20406;-61
2023/10/25 08:17:01;;;;;;;1.53;1.43;;;12.10;99.90;;;;;;5032832;28;20456;-62
2023/10/25 08:19:27;;;;;;;1.87;1.77;;;12.00;99.90;;;;;;5032597;28;20413;-62
2023/10/25 08:21:52;;;;;;;0.93;0.93;;;12.00;99.90;;;;;;5033078;28;20516;-61
2023/10/25 08:24:18;;;;;;;3.23;1.67;;;11.90;99.90;;;;;;5032837;28;20173;-62
2023/10/25 08:26:45;;;;;;;1.97;1.57;;;11.90;99.90;;;;;;5032688;28;20171;-61
2023/10/25 08:29:11;;;;;;;2.10;1.20;;;12.00;99.90;;;;;;5032509;28;20199;-61
2023/10/25 08:31:36;;;;;;;1.40;1.30;;;12.10;99.90;;;;;;5033130;28;20457;-60
2023/10/25 08:34:02;;;;;;;1.03;0.90;;;12.10;99.90;;;;;;5032532;28;20171;-61
2023/10/25 08:36:31;;;;;;;2.10;1.53;;;11.90;99.90;;;;;;5032417;28;20546;-61
2023/10/25 08:38:57;;;;;;;1.93;1.83;;;11.80;99.90;;;;;;5032420;28;20244;-61
2023/10/25 08:41:26;;;;;;;2.13;1.97;;;11.80;99.90;;;;;;5032605;28;20768;-61
2023/10/25 08:43:52;;;;;;;1.70;1.20;;;11.80;99.90;;;;;;5032519;28;20424;-61
2023/10/25 08:46:20;;;;;;;1.83;1.60;;;11.70;99.90;;;;;;5032368;28;20398;-61
2023/10/25 08:48:47;;;;;;;1.40;1.30;;;11.70;99.90;;;;;;5031900;28;20700;-61
2023/10/25 08:51:13;;;;;;;1.90;1.67;;;11.70;99.90;;;;;;5032418;28;20833;-62
2023/10/25 08:53:41;;;;;;;2.07;1.33;;;11.80;99.90;;;;;;5032545;28;20750;-60
2023/10/25 08:56:08;;;;;;;1.43;1.33;;;11.80;99.90;;;;;;5032165;28;20481;-61
2023/10/25 08:58:34;;;;;;;1.47;1.20;;;12.00;99.90;;;;;;5031866;28;20439;-61
2023/10/25 09:00:59;;;;;;;1.90;1.23;;;12.00;99.90;;;;;;5032072;28;20914;-62
2023/10/25 09:03:34;;;;;;;1.30;1.20;;;12.00;99.90;;;;;;5031967;28;20954;-60
2023/10/25 09:06:01;;;;;;;1.60;1.50;;;12.00;99.90;;;;;;5032260;28;20716;-60
2023/10/25 09:08:27;;;;;;;8.53;1.63;;;11.90;99.90;;;;;;5031794;28;20417;-62
2023/10/25 09:11:03;;;;;;;1.50;1.40;;;12.00;99.90;;;;;;5032012;28;20449;-60
2023/10/25 09:13:30;;;;;;;1.23;1.13;;;12.00;99.90;;;;;;5032059;28;20432;-61
2023/10/25 09:16:24;;;;;;;0.73;0.73;;;12.10;99.90;;;;;;5014716;28;20464;-62
2023/10/25 09:18:50;;;;;;;1.07;1.03;;;12.30;99.90;;;;;;5029574;28;20495;-62
2023/10/25 09:21:24;;;;;;;1.40;1.30;;;12.40;99.90;;;;;;5031852;28;20781;-62
2023/10/25 09:23:56;;;;;;;1.37;1.27;;;12.40;99.90;;;;;;5031388;28;20168;-62
2023/10/25 09:26:23;;;;;;;0.93;0.67;;;12.30;99.90;;;;;;5031762;28;20786;-61
2023/10/25 09:28:53;;;;;;;1.40;1.30;;;12.30;99.90;;;;;;5031612;28;20435;-62
2023/10/25 09:31:27;;;;;;;1.90;1.40;;;12.30;99.90;;;;;;5031766;28;20457;-62
2023/10/25 09:33:53;;;;;;;0.97;0.97;;;12.30;99.90;;;;;;5031611;28;20407;-62
2023/10/25 09:36:20;;;;;;;1.80;1.70;;;12.30;99.90;;;;;;5031452;28;20405;-61
2023/10/25 09:38:46;;;;;;;2.20;0.90;;;12.20;99.90;;;;;;5031207;28;20234;-59
2023/10/25 09:41:16;;;;;;;0.87;0.70;;;12.30;99.90;;;;;;5031069;28;20439;-62
2023/10/25 09:43:47;;;;;;;1.23;1.13;;;12.50;99.90;;;;;;5031502;28;20425;-61
2023/10/25 09:46:16;;;;;;;1.77;1.63;;;12.80;99.90;;;;;;5031452;28;20429;-62
2023/10/25 09:48:50;;;;;;;2.00;1.60;;;12.90;99.90;;;;;;5030152;28;20459;-62
2023/10/25 09:51:23;;;;;;;1.20;1.10;;;13.00;99.90;;;;;;5030577;28;20441;-61
2023/10/25 09:54:06;;;;;;;1.30;1.20;;;13.00;99.90;;;;;;5030887;28;20405;-62
2023/10/25 09:56:33;;;;;;;1.20;1.20;;;13.10;99.90;;;;;;5030547;28;20414;-61
2023/10/25 09:59:00;;;;;;;0.90;0.90;;;13.10;99.90;;;;;;5030827;28;20429;-63
2023/10/25 10:01:26;;;;;;;1.60;1.50;;;12.90;99.90;;;;;;5031247;28;20468;-63
2023/10/25 10:04:05;;;;;;;0.97;0.97;;;12.80;99.90;;;;;;5031050;28;20903;-63
2023/10/25 10:07:01;;;;;;;1.37;0.97;;;12.80;99.90;;;;;;5031337;28;20401;-62
2023/10/25 10:10:01;;;;;;;9.63;1.50;;;12.90;99.90;;;;;;5030778;28;20457;-61
2023/10/25 10:12:27;;;;;;;1.40;1.30;;;13.10;99.90;;;;;;5031053;28;20850;-63
2023/10/25 10:14:53;;;;;;;0.70;0.70;;;13.10;99.90;;;;;;5031271;28;20406;-62
2023/10/25 10:17:18;;;;;;;0.60;0.60;;;13.20;99.90;;;;;;5030944;28;20451;-63
2023/10/25 10:19:49;;;;;;;1.27;1.17;;;13.20;99.90;;;;;;5031158;28;20754;-62
2023/10/25 10:22:18;;;;;;;1.33;1.20;;;13.30;99.90;;;;;;5031080;28;20175;-62
2023/10/25 10:24:53;;;;;;;1.40;1.00;;;13.30;99.90;;;;;;5031357;28;20424;-62
2023/10/25 10:27:40;;;;;;;0.90;0.90;;;13.30;99.90;;;;;;5030958;28;20418;-61
2023/10/25 10:30:29;;;;;;;3.17;1.60;;;13.40;99.90;;;;;;5031031;28;20512;-61
2023/10/25 10:32:55;;;;;;;2.20;1.47;;;13.40;99.90;;;;;;5030469;28;20975;-60
2023/10/25 10:35:21;;;;;;;0.60;0.60;;;13.20;99.90;;;;;;5032097;28;20900;-60
2023/10/25 10:37:56;;;;;;;0.73;0.70;;;13.30;99.90;;;;;;5034866;28;20409;-61
2023/10/25 10:40:22;;;;;;;1.53;0.60;;;13.30;99.90;;;;;;5034645;28;20429;-61
2023/10/25 10:42:48;;;;;;;3.13;1.53;;;13.40;99.90;;;;;;5034768;28;20509;-61
2023/10/25 10:45:16;;;;;;;1.90;1.50;;;13.50;99.90;;;;;;5034423;28;20528;-61
2023/10/25 10:48:11;;;;;;;1.87;1.40;;;13.50;99.90;;;;;;5034399;28;20676;-61
2023/10/25 10:50:40;;;;;;;1.10;1.10;;;13.50;99.90;;;;;;5034557;28;21020;-61
2023/10/25 10:53:05;;;;;;;1.23;1.13;;;13.70;99.90;;;;;;5034597;28;20416;-61
2023/10/25 10:55:31;;;;;;;1.00;0.90;;;13.90;99.90;;;;;;5034429;28;20409;-61
2023/10/25 10:57:57;;;;;;;1.50;1.40;;;14.10;99.90;;;;;;5034241;28;20174;-61
2023/10/25 11:00:25;;;;;;;0.70;0.70;;;14.20;99.90;;;;;;5034550;28;20525;-59
2023/10/25 11:02:52;;;;;;;0.90;0.67;;;14.30;99.90;;;;;;5034008;28;20409;-60
2023/10/25 11:05:25;;;;;;;1.17;0.90;;;14.40;99.90;;;;;;5033696;28;20456;-61
2023/10/25 11:07:51;;;;;;;0.80;0.80;;;14.40;99.90;;;;;;5034198;28;20460;-61
2023/10/25 11:10:18;;;;;;;0.80;0.80;;;14.40;99.90;;;;;;5033473;28;20580;-61
2023/10/25 11:12:45;;;;;;;0.60;0.60;;;14.40;99.90;;;;;;5034218;28;20497;-61
2023/10/25 11:15:11;;;;;;;0.80;0.80;;;14.50;99.90;;;;;;5034265;28;21062;-61
2023/10/25 11:17:38;;;;;;;0.83;0.83;;;14.50;99.90;;;;;;5033579;28;20411;-61
2023/10/25 11:20:04;;;;;;;2.00;0.80;;;14.40;99.90;;;;;;5033799;28;20984;-62
2023/10/25 11:22:35;;;;;;;0.50;0.50;;;14.20;99.90;;;;;;5033811;28;20414;-61
2023/10/25 11:25:09;;;;;;;0.67;0.67;;;14.10;99.90;;;;;;5033845;28;20485;-61
2023/10/25 11:27:35;;;;;;;0.77;0.77;;;14.20;99.90;;;;;;5033686;28;20492;-61
2023/10/25 11:30:01;;;;;;;0.60;0.60;;;14.10;99.90;;;;;;5031597;28;20433;-61
2023/10/25 11:32:29;;;;;;;0.93;0.93;;;14.20;99.90;;;;;;5032383;28;20429;-61
2023/10/25 11:34:59;;;;;;;1.70;1.10;;;14.20;99.90;;;;;;5032188;28;20200;-61
2023/10/25 11:37:25;;;;;;;0.77;0.77;;;14.20;99.90;;;;;;5031491;28;20500;-60
2023/10/25 11:40:01;;;;;;;0.50;0.50;;;14.20;99.90;;;;;;5032281;28;20437;-61
2023/10/25 11:42:32;;;;;;;0.70;0.70;;;14.20;99.90;;;;;;5032784;28;20406;-61
2023/10/25 11:45:03;;;;;;;0.87;0.87;;;14.00;99.90;;;;;;5033091;28;20413;-60
2023/10/25 11:47:34;;;;;;;0.60;0.60;;;13.80;99.90;;;;;;5032971;28;20417;-61
2023/10/25 11:50:00;;;;;;;0.80;0.80;;;13.70;99.90;;;;;;5033275;28;20830;-61
2023/10/25 11:52:30;;;;;;;1.23;0.73;;;13.60;99.90;;;;;;5032854;28;20509;-60
2023/10/25 11:54:57;;;;;;;0.50;0.50;;;13.70;99.90;;;;;;5033406;28;20791;-59
2023/10/25 11:57:29;;;;;;;0.40;0.40;;;13.70;99.90;;;;;;5033594;28;20784;-61
2023/10/25 11:59:55;;;;;;;0.80;0.60;;;13.60;99.90;;;;;;5033135;28;20430;-60
2023/10/25 12:02:22;;;;;;;0.73;0.73;;;13.40;99.90;;;;;;5033327;28;20926;-60
2023/10/25 12:04:49;;;;;;;0.50;0.50;;;13.40;99.90;;;;;;5033468;28;20778;-61
2023/10/25 12:07:15;;;;;;;0.97;0.70;;;13.50;99.90;;;;;;5033290;28;20420;-61
2023/10/25 12:09:42;;;;;;;0.50;0.50;;;13.50;99.90;;;;;;5032947;28;20433;-61
2023/10/25 12:12:10;;;;;;;0.50;0.50;;;13.50;99.90;;;;;;5032669;28;20514;-61
2023/10/25 12:14:35;;;;;;;0.60;0.50;;;13.60;99.90;;;;;;5032813;28;20455;-61
2023/10/25 12:17:01;;;;;;;0.60;0.60;;;13.60;99.90;;;;;;5032786;28;20418;-61
2023/10/25 12:19:27;;;;;;;0.57;0.57;;;13.40;99.90;;;;;;5014920;28;20199;-61
2023/10/25 12:21:55;;;;;;;0.50;0.50;;;13.40;99.90;;;;;;5032646;28;20222;-61
2023/10/25 12:24:25;;;;;;;0.37;0.37;;;13.40;99.90;;;;;;5032794;28;20749;-61
2023/10/25 12:26:51;;;;;;;0.47;0.47;;;13.40;99.90;;;;;;5032680;28;20503;-62
2023/10/25 12:29:17;;;;;;;0.57;0.57;;;13.40;99.90;;;;;;5032385;28;20441;-61
2023/10/25 12:31:43;;;;;;;0.50;0.50;;;13.40;99.90;;;;;;5032599;28;20456;-61
2023/10/25 12:34:09;;;;;;;0.70;0.70;;;13.50;99.90;;;;;;5032670;28;20833;-61
2023/10/25 12:36:35;;;;;;;0.87;0.60;;;13.50;99.90;;;;;;5032501;28;20414;-61
2023/10/25 12:39:01;;;;;;;0.50;0.50;;;13.40;99.90;;;;;;5032336;28;20198;-61
2023/10/25 12:41:27;;;;;;;0.40;0.40;;;13.40;99.90;;;;;;5032560;28;20182;-62
2023/10/25 12:43:52;;;;;;;0.40;0.40;;;13.30;99.90;;;;;;5032455;28;20416;-61
2023/10/25 12:46:18;;;;;;;0.47;0.47;;;13.20;99.90;;;;;;5030880;28;20417;-60
2023/10/25 12:48:44;;;;;;;0.67;0.53;;;13.30;99.90;;;;;;5031739;28;20217;-61